sensor_id;sensor_type;location;lat;lon;timestamp;P1;durP1;ratioP1;P2;durP2;ratioP2
1479;SDS011;732;51.698;4.886;2022-12-07T00:01:43;6.73;;;3.47;;
1479;SDS011;732;51.698;4.886;2022-12-07T00:04:14;8.30;;;3.80;;
1479;SDS011;732;51.698;4.886;2022-12-07T00:06:45;9.60;;;3.67;;
1479;SDS011;732;51.698;4.886;2022-12-07T00:09:20;11.63;;;3.53;;
1479;SDS011;732;51.698;4.886;2022-12-07T00:11:49;7.57;;;3.90;;
1479;SDS011;732;51.698;4.886;2022-12-07T00:14:19;7.00;;;4.10;;
1479;SDS011;732;51.698;4.886;2022-12-07T00:16:49;5.40;;;3.77;;
1479;SDS011;732;51.698;4.886;2022-12-07T00:19:18;7.30;;;3.93;;
1479;SDS011;732;51.698;4.886;2022-12-07T00:21:48;6.70;;;4.27;;
1479;SDS011;732;51.698;4.886;2022-12-07T00:24:17;8.13;;;4.10;;
1479;SDS011;732;51.698;4.886;2022-12-07T00:26:45;9.50;;;5.00;;
1479;SDS011;732;51.698;4.886;2022-12-07T00:29:15;11.20;;;4.20;;
1479;SDS011;732;51.698;4.886;2022-12-07T00:31:46;9.07;;;4.97;;
1479;SDS011;732;51.698;4.886;2022-12-07T00:34:16;6.80;;;4.20;;
1479;SDS011;732;51.698;4.886;2022-12-07T00:36:49;5.40;;;3.57;;
1479;SDS011;732;51.698;4.886;2022-12-07T00:39:18;9.93;;;5.00;;
1479;SDS011;732;51.698;4.886;2022-12-07T00:41:46;8.20;;;4.60;;
1479;SDS011;732;51.698;4.886;2022-12-07T00:44:14;8.20;;;4.70;;
1479;SDS011;732;51.698;4.886;2022-12-07T00:46:43;7.13;;;3.90;;
1479;SDS011;732;51.698;4.886;2022-12-07T00:49:12;7.30;;;4.77;;
1479;SDS011;732;51.698;4.886;2022-12-07T00:51:41;7.83;;;4.13;;
1479;SDS011;732;51.698;4.886;2022-12-07T00:54:10;8.23;;;3.70;;
1479;SDS011;732;51.698;4.886;2022-12-07T00:56:39;4.27;;;3.63;;
1479;SDS011;732;51.698;4.886;2022-12-07T00:59:10;7.33;;;4.30;;
1479;SDS011;732;51.698;4.886;2022-12-07T01:01:41;5.57;;;3.77;;
1479;SDS011;732;51.698;4.886;2022-12-07T01:04:10;7.23;;;3.87;;
1479;SDS011;732;51.698;4.886;2022-12-07T01:06:38;5.33;;;3.80;;
1479;SDS011;732;51.698;4.886;2022-12-07T01:09:06;3.00;;;2.60;;
1479;SDS011;732;51.698;4.886;2022-12-07T01:11:36;4.90;;;3.10;;
1479;SDS011;732;51.698;4.886;2022-12-07T01:14:05;5.30;;;2.67;;
1479;SDS011;732;51.698;4.886;2022-12-07T01:16:33;3.97;;;2.33;;
1479;SDS011;732;51.698;4.886;2022-12-07T01:19:02;6.43;;;2.23;;
1479;SDS011;732;51.698;4.886;2022-12-07T01:21:32;7.20;;;2.47;;
1479;SDS011;732;51.698;4.886;2022-12-07T01:24:04;6.37;;;2.37;;
1479;SDS011;732;51.698;4.886;2022-12-07T01:26:37;4.90;;;1.90;;
1479;SDS011;732;51.698;4.886;2022-12-07T01:29:06;5.30;;;2.07;;
1479;SDS011;732;51.698;4.886;2022-12-07T01:31:34;4.90;;;1.70;;
1479;SDS011;732;51.698;4.886;2022-12-07T01:34:03;2.43;;;1.40;;
1479;SDS011;732;51.698;4.886;2022-12-07T01:36:32;11.90;;;1.73;;
1479;SDS011;732;51.698;4.886;2022-12-07T01:39:03;2.00;;;1.20;;
1479;SDS011;732;51.698;4.886;2022-12-07T01:41:36;13.23;;;1.53;;
1479;SDS011;732;51.698;4.886;2022-12-07T01:44:14;2.70;;;1.30;;
1479;SDS011;732;51.698;4.886;2022-12-07T01:46:49;3.10;;;1.50;;
1479;SDS011;732;51.698;4.886;2022-12-07T01:49:24;4.40;;;1.47;;
1479;SDS011;732;51.698;4.886;2022-12-07T01:52:01;5.03;;;2.50;;
1479;SDS011;732;51.698;4.886;2022-12-07T01:54:41;5.53;;;1.87;;
1479;SDS011;732;51.698;4.886;2022-12-07T01:57:13;5.67;;;2.20;;
1479;SDS011;732;51.698;4.886;2022-12-07T01:59:44;2.50;;;1.53;;
1479;SDS011;732;51.698;4.886;2022-12-07T02:02:17;5.13;;;2.03;;
1479;SDS011;732;51.698;4.886;2022-12-07T02:04:51;4.73;;;3.03;;
1479;SDS011;732;51.698;4.886;2022-12-07T02:07:21;13.80;;;2.47;;
1479;SDS011;732;51.698;4.886;2022-12-07T02:09:51;6.07;;;2.17;;
1479;SDS011;732;51.698;4.886;2022-12-07T02:12:21;2.67;;;1.73;;
1479;SDS011;732;51.698;4.886;2022-12-07T02:14:51;3.50;;;1.87;;
1479;SDS011;732;51.698;4.886;2022-12-07T02:17:20;4.27;;;2.20;;
1479;SDS011;732;51.698;4.886;2022-12-07T02:23:00;4.13;;;2.00;;
1479;SDS011;732;51.698;4.886;2022-12-07T02:26:14;5.60;;;2.70;;
1479;SDS011;732;51.698;4.886;2022-12-07T02:29:19;3.97;;;1.67;;
1479;SDS011;732;51.698;4.886;2022-12-07T02:31:53;3.63;;;2.00;;
1479;SDS011;732;51.698;4.886;2022-12-07T02:34:34;5.87;;;2.00;;
1479;SDS011;732;51.698;4.886;2022-12-07T02:37:14;2.90;;;1.73;;
1479;SDS011;732;51.698;4.886;2022-12-07T02:39:55;5.70;;;2.10;;
1479;SDS011;732;51.698;4.886;2022-12-07T02:42:29;2.70;;;1.70;;
1479;SDS011;732;51.698;4.886;2022-12-07T02:45:06;3.00;;;1.63;;
1479;SDS011;732;51.698;4.886;2022-12-07T02:47:38;3.13;;;1.67;;
1479;SDS011;732;51.698;4.886;2022-12-07T02:50:09;4.23;;;2.00;;
1479;SDS011;732;51.698;4.886;2022-12-07T02:52:38;5.73;;;1.70;;
1479;SDS011;732;51.698;4.886;2022-12-07T02:55:06;4.03;;;1.80;;
1479;SDS011;732;51.698;4.886;2022-12-07T02:57:40;4.97;;;1.77;;
1479;SDS011;732;51.698;4.886;2022-12-07T03:00:22;2.90;;;1.50;;
1479;SDS011;732;51.698;4.886;2022-12-07T03:02:53;9.33;;;2.27;;
1479;SDS011;732;51.698;4.886;2022-12-07T03:05:32;5.50;;;2.20;;
1479;SDS011;732;51.698;4.886;2022-12-07T03:08:15;3.17;;;2.30;;
1479;SDS011;732;51.698;4.886;2022-12-07T03:10:54;5.63;;;2.80;;
1479;SDS011;732;51.698;4.886;2022-12-07T03:13:28;3.40;;;2.53;;
1479;SDS011;732;51.698;4.886;2022-12-07T03:16:05;3.93;;;2.10;;
1479;SDS011;732;51.698;4.886;2022-12-07T03:18:40;7.13;;;2.47;;
1479;SDS011;732;51.698;4.886;2022-12-07T03:21:16;6.70;;;2.50;;
1479;SDS011;732;51.698;4.886;2022-12-07T03:23:51;4.37;;;2.60;;
1479;SDS011;732;51.698;4.886;2022-12-07T03:26:25;6.17;;;3.20;;
1479;SDS011;732;51.698;4.886;2022-12-07T03:29:00;4.50;;;2.53;;
1479;SDS011;732;51.698;4.886;2022-12-07T03:31:37;5.77;;;3.50;;
1479;SDS011;732;51.698;4.886;2022-12-07T03:34:11;4.77;;;2.40;;
1479;SDS011;732;51.698;4.886;2022-12-07T03:36:45;6.30;;;3.20;;
1479;SDS011;732;51.698;4.886;2022-12-07T03:39:20;8.57;;;3.20;;
1479;SDS011;732;51.698;4.886;2022-12-07T03:41:54;12.17;;;4.30;;
1479;SDS011;732;51.698;4.886;2022-12-07T03:44:24;8.87;;;4.60;;
1479;SDS011;732;51.698;4.886;2022-12-07T03:46:58;11.70;;;6.17;;
1479;SDS011;732;51.698;4.886;2022-12-07T03:49:37;10.20;;;6.23;;
1479;SDS011;732;51.698;4.886;2022-12-07T03:52:12;10.27;;;5.87;;
1479;SDS011;732;51.698;4.886;2022-12-07T03:54:52;9.70;;;5.30;;
1479;SDS011;732;51.698;4.886;2022-12-07T03:57:26;10.30;;;6.67;;
1479;SDS011;732;51.698;4.886;2022-12-07T03:59:58;14.80;;;7.17;;
1479;SDS011;732;51.698;4.886;2022-12-07T04:02:38;10.23;;;6.30;;
1479;SDS011;732;51.698;4.886;2022-12-07T04:05:08;14.37;;;6.40;;
1479;SDS011;732;51.698;4.886;2022-12-07T04:07:38;11.00;;;6.37;;
1479;SDS011;732;51.698;4.886;2022-12-07T04:10:08;14.33;;;7.07;;
1479;SDS011;732;51.698;4.886;2022-12-07T04:12:37;10.30;;;6.50;;
1479;SDS011;732;51.698;4.886;2022-12-07T04:15:07;13.73;;;7.70;;
1479;SDS011;732;51.698;4.886;2022-12-07T04:17:36;7.57;;;5.00;;
1479;SDS011;732;51.698;4.886;2022-12-07T04:20:07;10.37;;;4.10;;
1479;SDS011;732;51.698;4.886;2022-12-07T04:22:38;5.73;;;3.50;;
1479;SDS011;732;51.698;4.886;2022-12-07T04:25:07;6.10;;;3.47;;
1479;SDS011;732;51.698;4.886;2022-12-07T04:27:36;5.70;;;3.00;;
1479;SDS011;732;51.698;4.886;2022-12-07T04:30:04;8.63;;;3.40;;
1479;SDS011;732;51.698;4.886;2022-12-07T04:32:34;5.67;;;3.60;;
1479;SDS011;732;51.698;4.886;2022-12-07T04:35:05;6.20;;;3.70;;
1479;SDS011;732;51.698;4.886;2022-12-07T04:37:35;8.13;;;4.17;;
1479;SDS011;732;51.698;4.886;2022-12-07T04:40:06;8.60;;;4.40;;
1479;SDS011;732;51.698;4.886;2022-12-07T04:42:37;11.23;;;4.50;;
1479;SDS011;732;51.698;4.886;2022-12-07T04:45:06;13.73;;;4.87;;
1479;SDS011;732;51.698;4.886;2022-12-07T04:47:36;7.40;;;4.63;;
1479;SDS011;732;51.698;4.886;2022-12-07T04:50:07;12.73;;;6.20;;
1479;SDS011;732;51.698;4.886;2022-12-07T04:52:37;8.57;;;5.40;;
1479;SDS011;732;51.698;4.886;2022-12-07T04:55:06;9.37;;;4.33;;
1479;SDS011;732;51.698;4.886;2022-12-07T04:57:35;9.27;;;5.30;;
1479;SDS011;732;51.698;4.886;2022-12-07T05:00:03;10.90;;;5.63;;
1479;SDS011;732;51.698;4.886;2022-12-07T05:02:33;11.10;;;5.80;;
1479;SDS011;732;51.698;4.886;2022-12-07T05:05:02;10.63;;;5.40;;
1479;SDS011;732;51.698;4.886;2022-12-07T05:07:32;11.00;;;6.03;;
1479;SDS011;732;51.698;4.886;2022-12-07T05:10:00;9.67;;;5.17;;
1479;SDS011;732;51.698;4.886;2022-12-07T05:12:29;11.63;;;5.20;;
1479;SDS011;732;51.698;4.886;2022-12-07T05:14:58;8.83;;;5.63;;
1479;SDS011;732;51.698;4.886;2022-12-07T05:17:26;10.40;;;6.43;;
1479;SDS011;732;51.698;4.886;2022-12-07T05:19:54;10.40;;;6.57;;
1479;SDS011;732;51.698;4.886;2022-12-07T05:22:23;12.17;;;5.30;;
1479;SDS011;732;51.698;4.886;2022-12-07T05:24:55;9.33;;;6.00;;
1479;SDS011;732;51.698;4.886;2022-12-07T05:27:24;9.57;;;6.00;;
1479;SDS011;732;51.698;4.886;2022-12-07T05:29:53;11.27;;;5.50;;
1479;SDS011;732;51.698;4.886;2022-12-07T05:32:23;12.90;;;5.60;;
1479;SDS011;732;51.698;4.886;2022-12-07T05:34:51;7.70;;;5.00;;
1479;SDS011;732;51.698;4.886;2022-12-07T05:37:21;8.23;;;4.53;;
1479;SDS011;732;51.698;4.886;2022-12-07T05:39:49;10.17;;;5.60;;
1479;SDS011;732;51.698;4.886;2022-12-07T05:42:19;12.53;;;5.40;;
1479;SDS011;732;51.698;4.886;2022-12-07T05:44:47;12.90;;;5.23;;
1479;SDS011;732;51.698;4.886;2022-12-07T05:47:16;12.00;;;4.57;;
1479;SDS011;732;51.698;4.886;2022-12-07T05:49:44;11.10;;;4.80;;
1479;SDS011;732;51.698;4.886;2022-12-07T05:52:14;9.20;;;4.87;;
1479;SDS011;732;51.698;4.886;2022-12-07T05:54:42;10.30;;;5.30;;
1479;SDS011;732;51.698;4.886;2022-12-07T05:57:11;7.73;;;4.57;;
1479;SDS011;732;51.698;4.886;2022-12-07T05:59:41;11.50;;;5.50;;
1479;SDS011;732;51.698;4.886;2022-12-07T06:02:10;10.60;;;5.33;;
1479;SDS011;732;51.698;4.886;2022-12-07T06:04:41;15.00;;;5.90;;
1479;SDS011;732;51.698;4.886;2022-12-07T06:07:13;9.20;;;5.30;;
1479;SDS011;732;51.698;4.886;2022-12-07T06:09:43;14.03;;;6.83;;
1479;SDS011;732;51.698;4.886;2022-12-07T06:12:12;14.33;;;6.00;;
1479;SDS011;732;51.698;4.886;2022-12-07T06:15:00;10.07;;;5.53;;
1479;SDS011;732;51.698;4.886;2022-12-07T06:17:29;7.20;;;5.13;;
1479;SDS011;732;51.698;4.886;2022-12-07T06:19:58;8.43;;;5.17;;
1479;SDS011;732;51.698;4.886;2022-12-07T06:22:27;8.00;;;4.73;;
1479;SDS011;732;51.698;4.886;2022-12-07T06:24:56;9.77;;;4.97;;
1479;SDS011;732;51.698;4.886;2022-12-07T06:27:31;7.77;;;4.70;;
1479;SDS011;732;51.698;4.886;2022-12-07T06:30:02;7.83;;;4.60;;
1479;SDS011;732;51.698;4.886;2022-12-07T06:32:33;8.87;;;4.70;;
1479;SDS011;732;51.698;4.886;2022-12-07T06:35:04;8.43;;;5.67;;
1479;SDS011;732;51.698;4.886;2022-12-07T06:37:33;10.63;;;5.07;;
1479;SDS011;732;51.698;4.886;2022-12-07T06:40:01;9.57;;;5.30;;
1479;SDS011;732;51.698;4.886;2022-12-07T06:42:31;9.10;;;4.63;;
1479;SDS011;732;51.698;4.886;2022-12-07T06:44:59;8.33;;;4.60;;
1479;SDS011;732;51.698;4.886;2022-12-07T06:47:30;8.20;;;4.47;;
1479;SDS011;732;51.698;4.886;2022-12-07T06:50:09;8.40;;;4.20;;
1479;SDS011;732;51.698;4.886;2022-12-07T06:52:37;9.90;;;5.10;;
1479;SDS011;732;51.698;4.886;2022-12-07T06:55:06;11.90;;;4.83;;
1479;SDS011;732;51.698;4.886;2022-12-07T06:57:35;9.83;;;4.40;;
1479;SDS011;732;51.698;4.886;2022-12-07T07:00:05;6.93;;;4.20;;
1479;SDS011;732;51.698;4.886;2022-12-07T07:02:35;10.13;;;4.17;;
1479;SDS011;732;51.698;4.886;2022-12-07T07:05:04;7.20;;;4.27;;
1479;SDS011;732;51.698;4.886;2022-12-07T07:07:32;7.63;;;4.00;;
1479;SDS011;732;51.698;4.886;2022-12-07T07:10:21;7.07;;;4.07;;
1479;SDS011;732;51.698;4.886;2022-12-07T07:12:49;9.83;;;4.53;;
1479;SDS011;732;51.698;4.886;2022-12-07T07:15:24;9.33;;;3.57;;
1479;SDS011;732;51.698;4.886;2022-12-07T07:17:52;8.33;;;3.80;;
1479;SDS011;732;51.698;4.886;2022-12-07T07:20:21;8.37;;;4.50;;
1479;SDS011;732;51.698;4.886;2022-12-07T07:22:49;7.87;;;4.20;;
1479;SDS011;732;51.698;4.886;2022-12-07T07:25:18;9.30;;;5.00;;
1479;SDS011;732;51.698;4.886;2022-12-07T07:27:46;10.33;;;5.33;;
1479;SDS011;732;51.698;4.886;2022-12-07T07:30:15;13.70;;;6.40;;
1479;SDS011;732;51.698;4.886;2022-12-07T07:32:46;10.33;;;5.47;;
1479;SDS011;732;51.698;4.886;2022-12-07T07:35:15;8.53;;;4.87;;
1479;SDS011;732;51.698;4.886;2022-12-07T07:37:43;9.77;;;4.60;;
1479;SDS011;732;51.698;4.886;2022-12-07T07:40:13;13.90;;;5.30;;
1479;SDS011;732;51.698;4.886;2022-12-07T07:42:42;10.63;;;4.97;;
1479;SDS011;732;51.698;4.886;2022-12-07T07:45:10;9.37;;;5.23;;
1479;SDS011;732;51.698;4.886;2022-12-07T07:47:39;8.77;;;5.20;;
1479;SDS011;732;51.698;4.886;2022-12-07T07:50:09;7.80;;;4.97;;
1479;SDS011;732;51.698;4.886;2022-12-07T07:52:38;9.37;;;4.67;;
1479;SDS011;732;51.698;4.886;2022-12-07T07:55:07;11.13;;;4.50;;
1479;SDS011;732;51.698;4.886;2022-12-07T07:57:36;9.53;;;5.90;;
1479;SDS011;732;51.698;4.886;2022-12-07T08:00:07;9.17;;;5.13;;
1479;SDS011;732;51.698;4.886;2022-12-07T08:02:38;11.30;;;5.57;;
1479;SDS011;732;51.698;4.886;2022-12-07T08:05:10;8.70;;;4.87;;
1479;SDS011;732;51.698;4.886;2022-12-07T08:07:40;9.47;;;5.50;;
1479;SDS011;732;51.698;4.886;2022-12-07T08:10:10;11.27;;;4.87;;
1479;SDS011;732;51.698;4.886;2022-12-07T08:12:41;9.10;;;4.33;;
1479;SDS011;732;51.698;4.886;2022-12-07T08:15:28;8.43;;;5.33;;
1479;SDS011;732;51.698;4.886;2022-12-07T08:17:58;14.23;;;5.10;;
1479;SDS011;732;51.698;4.886;2022-12-07T08:20:29;8.30;;;3.73;;
1479;SDS011;732;51.698;4.886;2022-12-07T08:22:58;8.50;;;4.43;;
1479;SDS011;732;51.698;4.886;2022-12-07T08:25:27;7.77;;;4.50;;
1479;SDS011;732;51.698;4.886;2022-12-07T08:27:57;12.53;;;5.30;;
1479;SDS011;732;51.698;4.886;2022-12-07T08:30:26;7.87;;;4.87;;
1479;SDS011;732;51.698;4.886;2022-12-07T08:32:56;18.07;;;4.90;;
1479;SDS011;732;51.698;4.886;2022-12-07T08:35:25;7.87;;;4.80;;
1479;SDS011;732;51.698;4.886;2022-12-07T08:37:55;16.57;;;5.37;;
1479;SDS011;732;51.698;4.886;2022-12-07T08:40:24;7.07;;;4.13;;
1479;SDS011;732;51.698;4.886;2022-12-07T08:42:52;11.07;;;4.90;;
1479;SDS011;732;51.698;4.886;2022-12-07T08:45:21;11.73;;;5.03;;
1479;SDS011;732;51.698;4.886;2022-12-07T08:47:53;9.30;;;4.70;;
1479;SDS011;732;51.698;4.886;2022-12-07T08:50:29;8.70;;;4.77;;
1479;SDS011;732;51.698;4.886;2022-12-07T08:53:00;13.70;;;5.07;;
1479;SDS011;732;51.698;4.886;2022-12-07T08:55:30;12.80;;;4.07;;
1479;SDS011;732;51.698;4.886;2022-12-07T08:58:01;8.67;;;4.57;;
1479;SDS011;732;51.698;4.886;2022-12-07T09:00:30;8.80;;;4.97;;
1479;SDS011;732;51.698;4.886;2022-12-07T09:02:59;7.57;;;4.73;;
1479;SDS011;732;51.698;4.886;2022-12-07T09:05:28;9.07;;;3.90;;
1479;SDS011;732;51.698;4.886;2022-12-07T09:07:59;7.87;;;4.53;;
1479;SDS011;732;51.698;4.886;2022-12-07T09:10:31;12.40;;;4.90;;
1479;SDS011;732;51.698;4.886;2022-12-07T09:13:00;16.03;;;4.37;;
1479;SDS011;732;51.698;4.886;2022-12-07T09:15:28;10.00;;;5.57;;
1479;SDS011;732;51.698;4.886;2022-12-07T09:17:58;15.93;;;5.17;;
1479;SDS011;732;51.698;4.886;2022-12-07T09:20:26;8.47;;;4.80;;
1479;SDS011;732;51.698;4.886;2022-12-07T09:22:55;8.10;;;4.70;;
1479;SDS011;732;51.698;4.886;2022-12-07T09:25:24;22.40;;;5.40;;
1479;SDS011;732;51.698;4.886;2022-12-07T09:27:58;9.03;;;4.43;;
1479;SDS011;732;51.698;4.886;2022-12-07T09:30:26;7.10;;;4.00;;
1479;SDS011;732;51.698;4.886;2022-12-07T09:32:56;8.43;;;4.13;;
1479;SDS011;732;51.698;4.886;2022-12-07T09:35:25;9.67;;;4.10;;
1479;SDS011;732;51.698;4.886;2022-12-07T09:37:53;21.30;;;5.70;;
1479;SDS011;732;51.698;4.886;2022-12-07T09:40:22;10.33;;;4.20;;
1479;SDS011;732;51.698;4.886;2022-12-07T09:42:53;12.23;;;4.37;;
1479;SDS011;732;51.698;4.886;2022-12-07T09:45:24;11.03;;;4.73;;
1479;SDS011;732;51.698;4.886;2022-12-07T09:47:57;8.23;;;5.00;;
1479;SDS011;732;51.698;4.886;2022-12-07T09:50:27;13.20;;;4.63;;
1479;SDS011;732;51.698;4.886;2022-12-07T09:53:02;6.93;;;3.90;;
1479;SDS011;732;51.698;4.886;2022-12-07T09:55:37;9.63;;;4.70;;
1479;SDS011;732;51.698;4.886;2022-12-07T09:58:09;6.70;;;4.00;;
1479;SDS011;732;51.698;4.886;2022-12-07T10:00:44;7.50;;;4.33;;
1479;SDS011;732;51.698;4.886;2022-12-07T10:03:13;10.20;;;4.27;;
1479;SDS011;732;51.698;4.886;2022-12-07T10:05:43;8.13;;;4.00;;
1479;SDS011;732;51.698;4.886;2022-12-07T10:08:14;6.67;;;4.30;;
1479;SDS011;732;51.698;4.886;2022-12-07T10:10:45;10.77;;;4.50;;
1479;SDS011;732;51.698;4.886;2022-12-07T10:13:22;6.90;;;4.30;;
1479;SDS011;732;51.698;4.886;2022-12-07T10:16:03;7.57;;;3.60;;
1479;SDS011;732;51.698;4.886;2022-12-07T10:18:33;10.70;;;4.13;;
1479;SDS011;732;51.698;4.886;2022-12-07T10:21:10;6.90;;;4.03;;
1479;SDS011;732;51.698;4.886;2022-12-07T10:23:43;6.03;;;4.13;;
1479;SDS011;732;51.698;4.886;2022-12-07T10:26:31;12.10;;;4.93;;
1479;SDS011;732;51.698;4.886;2022-12-07T10:29:02;8.20;;;4.90;;
1479;SDS011;732;51.698;4.886;2022-12-07T10:31:43;4.90;;;3.10;;
1479;SDS011;732;51.698;4.886;2022-12-07T10:34:20;6.80;;;3.13;;
1479;SDS011;732;51.698;4.886;2022-12-07T10:36:52;7.80;;;3.70;;
1479;SDS011;732;51.698;4.886;2022-12-07T10:39:22;6.00;;;2.70;;
1479;SDS011;732;51.698;4.886;2022-12-07T10:41:56;7.30;;;2.80;;
1479;SDS011;732;51.698;4.886;2022-12-07T10:44:27;3.60;;;2.60;;
1479;SDS011;732;51.698;4.886;2022-12-07T10:47:15;5.00;;;2.20;;
1479;SDS011;732;51.698;4.886;2022-12-07T10:50:02;3.13;;;2.10;;
1479;SDS011;732;51.698;4.886;2022-12-07T10:56:35;6.47;;;2.07;;
1479;SDS011;732;51.698;4.886;2022-12-07T10:59:30;16.93;;;2.40;;
1479;SDS011;732;51.698;4.886;2022-12-07T11:02:25;3.47;;;1.83;;
1479;SDS011;732;51.698;4.886;2022-12-07T11:05:12;3.20;;;1.80;;
1479;SDS011;732;51.698;4.886;2022-12-07T11:07:55;4.60;;;2.37;;
1479;SDS011;732;51.698;4.886;2022-12-07T11:10:36;6.00;;;1.97;;
1479;SDS011;732;51.698;4.886;2022-12-07T11:16:11;5.73;;;2.17;;
1479;SDS011;732;51.698;4.886;2022-12-07T11:21:55;4.87;;;2.60;;
1479;SDS011;732;51.698;4.886;2022-12-07T11:24:27;11.13;;;2.13;;
1479;SDS011;732;51.698;4.886;2022-12-07T11:27:10;11.20;;;3.33;;
1479;SDS011;732;51.698;4.886;2022-12-07T11:29:56;3.53;;;2.30;;
1479;SDS011;732;51.698;4.886;2022-12-07T11:32:57;3.67;;;2.73;;
1479;SDS011;732;51.698;4.886;2022-12-07T11:35:45;3.80;;;2.27;;
1479;SDS011;732;51.698;4.886;2022-12-07T11:38:26;2.77;;;1.70;;
1479;SDS011;732;51.698;4.886;2022-12-07T11:41:06;3.47;;;2.23;;
1479;SDS011;732;51.698;4.886;2022-12-07T11:43:49;1.83;;;1.50;;
1479;SDS011;732;51.698;4.886;2022-12-07T11:46:24;5.90;;;1.73;;
1479;SDS011;732;51.698;4.886;2022-12-07T11:49:03;3.20;;;1.80;;
1479;SDS011;732;51.698;4.886;2022-12-07T11:51:40;6.03;;;2.30;;
1479;SDS011;732;51.698;4.886;2022-12-07T11:54:14;2.00;;;1.23;;
1479;SDS011;732;51.698;4.886;2022-12-07T11:56:47;5.50;;;1.30;;
1479;SDS011;732;51.698;4.886;2022-12-07T11:59:19;7.03;;;1.07;;
1479;SDS011;732;51.698;4.886;2022-12-07T12:02:00;2.70;;;1.30;;
1479;SDS011;732;51.698;4.886;2022-12-07T12:04:45;1.40;;;1.10;;
1479;SDS011;732;51.698;4.886;2022-12-07T12:07:22;4.77;;;1.30;;
1479;SDS011;732;51.698;4.886;2022-12-07T12:10:15;3.53;;;1.00;;
1479;SDS011;732;51.698;4.886;2022-12-07T12:12:55;2.20;;;1.10;;
1479;SDS011;732;51.698;4.886;2022-12-07T12:16:13;1.67;;;1.00;;
1479;SDS011;732;51.698;4.886;2022-12-07T12:19:21;2.10;;;1.00;;
1479;SDS011;732;51.698;4.886;2022-12-07T12:22:03;2.73;;;1.17;;
1479;SDS011;732;51.698;4.886;2022-12-07T12:24:40;15.40;;;7.27;;
1479;SDS011;732;51.698;4.886;2022-12-07T12:27:15;6.17;;;3.23;;
1479;SDS011;732;51.698;4.886;2022-12-07T12:29:52;3.30;;;1.97;;
1479;SDS011;732;51.698;4.886;2022-12-07T12:32:23;6.97;;;3.67;;
1479;SDS011;732;51.698;4.886;2022-12-07T12:35:20;5.80;;;2.43;;
1479;SDS011;732;51.698;4.886;2022-12-07T12:41:02;3.63;;;1.90;;
1479;SDS011;732;51.698;4.886;2022-12-07T12:46:37;4.07;;;2.00;;
1479;SDS011;732;51.698;4.886;2022-12-07T12:55:21;2.73;;;2.07;;
1479;SDS011;732;51.698;4.886;2022-12-07T12:58:32;2.30;;;1.50;;
1479;SDS011;732;51.698;4.886;2022-12-07T13:07:10;1.27;;;0.80;;
1479;SDS011;732;51.698;4.886;2022-12-07T13:09:43;1.87;;;1.10;;
1479;SDS011;732;51.698;4.886;2022-12-07T13:12:14;2.63;;;1.00;;
1479;SDS011;732;51.698;4.886;2022-12-07T13:14:57;2.17;;;0.70;;
1479;SDS011;732;51.698;4.886;2022-12-07T13:20:47;3.33;;;0.83;;
1479;SDS011;732;51.698;4.886;2022-12-07T13:23:25;1.07;;;0.90;;
1479;SDS011;732;51.698;4.886;2022-12-07T13:26:12;2.87;;;1.10;;
1479;SDS011;732;51.698;4.886;2022-12-07T13:28:47;1.50;;;0.90;;
1479;SDS011;732;51.698;4.886;2022-12-07T13:31:19;1.40;;;0.83;;
1479;SDS011;732;51.698;4.886;2022-12-07T13:33:59;2.23;;;1.00;;
1479;SDS011;732;51.698;4.886;2022-12-07T13:36:29;1.90;;;0.93;;
1479;SDS011;732;51.698;4.886;2022-12-07T13:39:15;1.10;;;0.70;;
1479;SDS011;732;51.698;4.886;2022-12-07T13:41:49;1.40;;;0.90;;
1479;SDS011;732;51.698;4.886;2022-12-07T13:44:23;3.00;;;1.30;;
1479;SDS011;732;51.698;4.886;2022-12-07T13:46:57;2.60;;;1.10;;
1479;SDS011;732;51.698;4.886;2022-12-07T13:49:37;1.70;;;1.30;;
1479;SDS011;732;51.698;4.886;2022-12-07T13:52:20;1.83;;;1.20;;
1479;SDS011;732;51.698;4.886;2022-12-07T13:54:55;1.63;;;0.93;;
1479;SDS011;732;51.698;4.886;2022-12-07T13:57:27;2.63;;;1.40;;
1479;SDS011;732;51.698;4.886;2022-12-07T13:59:59;1.93;;;1.07;;
1479;SDS011;732;51.698;4.886;2022-12-07T14:02:33;1.83;;;1.07;;
1479;SDS011;732;51.698;4.886;2022-12-07T14:05:13;1.10;;;0.90;;
1479;SDS011;732;51.698;4.886;2022-12-07T14:07:53;3.00;;;1.40;;
1479;SDS011;732;51.698;4.886;2022-12-07T14:10:25;2.07;;;1.27;;
1479;SDS011;732;51.698;4.886;2022-12-07T14:12:56;3.93;;;1.43;;
1479;SDS011;732;51.698;4.886;2022-12-07T14:15:27;4.83;;;2.23;;
1479;SDS011;732;51.698;4.886;2022-12-07T14:17:58;2.80;;;1.57;;
1479;SDS011;732;51.698;4.886;2022-12-07T14:20:30;2.33;;;1.73;;
1479;SDS011;732;51.698;4.886;2022-12-07T14:23:01;8.00;;;2.97;;
1479;SDS011;732;51.698;4.886;2022-12-07T14:25:45;2.80;;;2.00;;
1479;SDS011;732;51.698;4.886;2022-12-07T14:28:27;6.73;;;1.97;;
1479;SDS011;732;51.698;4.886;2022-12-07T14:30:58;11.47;;;3.87;;
1479;SDS011;732;51.698;4.886;2022-12-07T14:33:28;3.77;;;2.63;;
1479;SDS011;732;51.698;4.886;2022-12-07T14:35:57;8.87;;;3.30;;
1479;SDS011;732;51.698;4.886;2022-12-07T14:38:25;6.77;;;4.63;;
1479;SDS011;732;51.698;4.886;2022-12-07T14:40:54;2.20;;;1.60;;
1479;SDS011;732;51.698;4.886;2022-12-07T14:43:44;5.00;;;4.47;;
1479;SDS011;732;51.698;4.886;2022-12-07T14:46:34;9.23;;;3.70;;
1479;SDS011;732;51.698;4.886;2022-12-07T14:49:04;4.53;;;2.37;;
1479;SDS011;732;51.698;4.886;2022-12-07T14:51:53;4.30;;;1.30;;
1479;SDS011;732;51.698;4.886;2022-12-07T14:54:42;4.40;;;1.60;;
1479;SDS011;732;51.698;4.886;2022-12-07T14:57:10;2.47;;;1.60;;
1479;SDS011;732;51.698;4.886;2022-12-07T14:59:39;1.80;;;1.03;;
1479;SDS011;732;51.698;4.886;2022-12-07T15:02:12;2.73;;;1.20;;
1479;SDS011;732;51.698;4.886;2022-12-07T15:04:42;3.00;;;1.20;;
1479;SDS011;732;51.698;4.886;2022-12-07T15:07:13;1.43;;;1.00;;
1479;SDS011;732;51.698;4.886;2022-12-07T15:09:46;2.10;;;1.47;;
1479;SDS011;732;51.698;4.886;2022-12-07T15:12:15;2.60;;;1.60;;
1479;SDS011;732;51.698;4.886;2022-12-07T15:14:43;3.97;;;2.17;;
1479;SDS011;732;51.698;4.886;2022-12-07T15:17:13;4.50;;;2.10;;
1479;SDS011;732;51.698;4.886;2022-12-07T15:19:57;2.90;;;1.70;;
1479;SDS011;732;51.698;4.886;2022-12-07T15:22:25;2.50;;;1.70;;
1479;SDS011;732;51.698;4.886;2022-12-07T15:25:03;3.53;;;1.80;;
1479;SDS011;732;51.698;4.886;2022-12-07T15:27:33;2.40;;;1.70;;
1479;SDS011;732;51.698;4.886;2022-12-07T15:30:02;3.70;;;2.40;;
1479;SDS011;732;51.698;4.886;2022-12-07T15:32:33;2.53;;;1.67;;
1479;SDS011;732;51.698;4.886;2022-12-07T15:35:01;3.87;;;1.80;;
1479;SDS011;732;51.698;4.886;2022-12-07T15:37:31;13.20;;;5.67;;
1479;SDS011;732;51.698;4.886;2022-12-07T15:39:59;8.20;;;3.30;;
1479;SDS011;732;51.698;4.886;2022-12-07T15:42:33;4.80;;;2.50;;
1479;SDS011;732;51.698;4.886;2022-12-07T15:45:03;3.83;;;2.63;;
1479;SDS011;732;51.698;4.886;2022-12-07T15:47:35;4.70;;;2.70;;
1479;SDS011;732;51.698;4.886;2022-12-07T15:50:26;5.93;;;2.13;;
1479;SDS011;732;51.698;4.886;2022-12-07T15:52:54;6.00;;;2.60;;
1479;SDS011;732;51.698;4.886;2022-12-07T15:55:22;3.57;;;2.50;;
1479;SDS011;732;51.698;4.886;2022-12-07T15:57:51;5.10;;;2.70;;
1479;SDS011;732;51.698;4.886;2022-12-07T16:00:19;4.30;;;2.60;;
1479;SDS011;732;51.698;4.886;2022-12-07T16:02:49;8.43;;;2.60;;
1479;SDS011;732;51.698;4.886;2022-12-07T16:05:18;4.70;;;2.43;;
1479;SDS011;732;51.698;4.886;2022-12-07T16:07:47;4.17;;;2.07;;
1479;SDS011;732;51.698;4.886;2022-12-07T16:10:16;4.93;;;2.83;;
1479;SDS011;732;51.698;4.886;2022-12-07T16:12:44;4.33;;;2.10;;
1479;SDS011;732;51.698;4.886;2022-12-07T16:15:13;4.43;;;2.47;;
1479;SDS011;732;51.698;4.886;2022-12-07T16:17:49;3.97;;;2.00;;
1479;SDS011;732;51.698;4.886;2022-12-07T16:20:19;4.47;;;3.00;;
1479;SDS011;732;51.698;4.886;2022-12-07T16:22:50;4.60;;;1.80;;
1479;SDS011;732;51.698;4.886;2022-12-07T16:25:19;3.57;;;2.07;;
1479;SDS011;732;51.698;4.886;2022-12-07T16:27:48;3.17;;;2.10;;
1479;SDS011;732;51.698;4.886;2022-12-07T16:30:16;3.80;;;2.00;;
1479;SDS011;732;51.698;4.886;2022-12-07T16:32:45;3.80;;;1.90;;
1479;SDS011;732;51.698;4.886;2022-12-07T16:35:16;3.37;;;1.97;;
1479;SDS011;732;51.698;4.886;2022-12-07T16:37:44;5.10;;;2.80;;
1479;SDS011;732;51.698;4.886;2022-12-07T16:40:13;5.40;;;3.07;;